sensor_id;sensor_type;location;lat;lon;timestamp;pressure;altitude;pressure_sealevel;temperature;humidity
25560;BME280;13450;49.374;8.584;2023-02-14T00:00:18;102481.06;;;1.81;100.00
25560;BME280;13450;49.374;8.584;2023-02-14T00:03:11;102487.44;;;1.77;100.00
25560;BME280;13450;49.374;8.584;2023-02-14T00:05:38;102480.44;;;1.76;100.00
25560;BME280;13450;49.374;8.584;2023-02-14T00:08:07;102482.44;;;1.70;100.00
25560;BME280;13450;49.374;8.584;2023-02-14T00:10:34;102470.31;;;1.66;100.00
25560;BME280;13450;49.374;8.584;2023-02-14T00:13:08;102472.34;;;1.61;100.00
25560;BME280;13450;49.374;8.584;2023-02-14T00:16:05;102475.06;;;1.60;100.00
25560;BME280;13450;49.374;8.584;2023-02-14T00:18:32;102475.22;;;1.56;100.00
25560;BME280;13450;49.374;8.584;2023-02-14T00:21:44;102476.38;;;1.51;100.00
25560;BME280;13450;49.374;8.584;2023-02-14T00:24:41;102472.13;;;1.48;100.00
25560;BME280;13450;49.374;8.584;2023-02-14T00:33:20;102477.78;;;1.40;100.00
25560;BME280;13450;49.374;8.584;2023-02-14T00:41:13;102472.00;;;1.32;100.00
25560;BME280;13450;49.374;8.584;2023-02-14T00:44:06;102472.94;;;1.31;100.00
25560;BME280;13450;49.374;8.584;2023-02-14T00:46:34;102474.72;;;1.30;100.00
25560;BME280;13450;49.374;8.584;2023-02-14T00:49:00;102473.84;;;1.30;100.00
25560;BME280;13450;49.374;8.584;2023-02-14T00:51:38;102471.44;;;1.25;100.00
25560;BME280;13450;49.374;8.584;2023-02-14T00:54:20;102466.19;;;1.25;100.00
25560;BME280;13450;49.374;8.584;2023-02-14T00:56:58;102465.44;;;1.22;100.00
25560;BME280;13450;49.374;8.584;2023-02-14T00:59:28;102460.16;;;1.22;100.00
25560;BME280;13450;49.374;8.584;2023-02-14T01:02:05;102458.78;;;1.14;100.00
25560;BME280;13450;49.374;8.584;2023-02-14T01:04:36;102463.13;;;1.15;100.00
25560;BME280;13450;49.374;8.584;2023-02-14T01:07:27;102469.19;;;1.17;100.00
25560;BME280;13450;49.374;8.584;2023-02-14T01:09:56;102462.41;;;1.12;100.00
25560;BME280;13450;49.374;8.584;2023-02-14T01:15:02;102475.66;;;1.10;100.00
25560;BME280;13450;49.374;8.584;2023-02-14T01:18:29;102473.59;;;0.98;100.00
25560;BME280;13450;49.374;8.584;2023-02-14T01:21:31;102471.41;;;0.88;100.00
25560;BME280;13450;49.374;8.584;2023-02-14T01:24:08;102478.44;;;0.88;100.00
25560;BME280;13450;49.374;8.584;2023-02-14T01:26:53;102478.03;;;0.78;100.00
25560;BME280;13450;49.374;8.584;2023-02-14T01:29:20;102478.16;;;0.75;100.00
25560;BME280;13450;49.374;8.584;2023-02-14T01:32:11;102475.03;;;0.67;100.00
25560;BME280;13450;49.374;8.584;2023-02-14T01:34:48;102471.75;;;0.61;100.00
25560;BME280;13450;49.374;8.584;2023-02-14T01:37:26;102481.78;;;0.53;100.00
25560;BME280;13450;49.374;8.584;2023-02-14T01:39:54;102477.44;;;0.52;100.00
25560;BME280;13450;49.374;8.584;2023-02-14T01:42:52;102481.00;;;0.51;100.00
25560;BME280;13450;49.374;8.584;2023-02-14T01:45:26;102478.72;;;0.43;100.00
25560;BME280;13450;49.374;8.584;2023-02-14T01:48:03;102481.53;;;0.38;100.00
25560;BME280;13450;49.374;8.584;2023-02-14T01:50:37;102490.50;;;0.34;100.00
25560;BME280;13450;49.374;8.584;2023-02-14T01:53:36;102481.44;;;0.21;100.00
25560;BME280;13450;49.374;8.584;2023-02-14T01:56:26;102484.19;;;0.18;100.00
25560;BME280;13450;49.374;8.584;2023-02-14T01:59:21;102484.47;;;0.11;100.00
25560;BME280;13450;49.374;8.584;2023-02-14T02:07:35;102491.06;;;0.01;100.00
25560;BME280;13450;49.374;8.584;2023-02-14T02:10:08;102494.63;;;0.00;100.00
25560;BME280;13450;49.374;8.584;2023-02-14T02:12:40;102493.09;;;-0.06;100.00
25560;BME280;13450;49.374;8.584;2023-02-14T02:15:07;102490.53;;;-0.07;100.00
25560;BME280;13450;49.374;8.584;2023-02-14T02:32:54;102492.28;;;-0.29;100.00
25560;BME280;13450;49.374;8.584;2023-02-14T02:44:23;102484.88;;;-0.41;100.00
25560;BME280;13450;49.374;8.584;2023-02-14T02:50:24;102490.31;;;-0.46;100.00
25560;BME280;13450;49.374;8.584;2023-02-14T02:56:35;102490.75;;;-0.57;100.00
25560;BME280;13450;49.374;8.584;2023-02-14T02:59:36;102486.47;;;-0.59;100.00
25560;BME280;13450;49.374;8.584;2023-02-14T03:02:20;102484.81;;;-0.62;100.00
25560;BME280;13450;49.374;8.584;2023-02-14T03:05:03;102484.09;;;-0.66;100.00
25560;BME280;13450;49.374;8.584;2023-02-14T03:07:38;102485.94;;;-0.68;100.00
25560;BME280;13450;49.374;8.584;2023-02-14T03:16:24;102496.69;;;-0.74;100.00
25560;BME280;13450;49.374;8.584;2023-02-14T03:22:36;102500.25;;;-0.75;100.00
25560;BME280;13450;49.374;8.584;2023-02-14T03:28:32;102495.84;;;-0.74;100.00
25560;BME280;13450;49.374;8.584;2023-02-14T03:31:37;102498.75;;;-0.82;100.00
25560;BME280;13450;49.374;8.584;2023-02-14T03:34:34;102499.78;;;-0.86;100.00
25560;BME280;13450;49.374;8.584;2023-02-14T03:40:47;102502.56;;;-0.89;100.00
25560;BME280;13450;49.374;8.584;2023-02-14T03:43:43;102500.81;;;-0.90;100.00
25560;BME280;13450;49.374;8.584;2023-02-14T03:48:44;102504.22;;;-0.87;100.00
25560;BME280;13450;49.374;8.584;2023-02-14T03:51:15;102498.19;;;-0.90;100.00
25560;BME280;13450;49.374;8.584;2023-02-14T03:53:50;102506.09;;;-0.90;100.00
25560;BME280;13450;49.374;8.584;2023-02-14T03:59:58;102501.88;;;-0.95;100.00
25560;BME280;13450;49.374;8.584;2023-02-14T04:03:01;102508.03;;;-0.96;100.00
25560;BME280;13450;49.374;8.584;2023-02-14T04:05:38;102504.50;;;-0.95;100.00
25560;BME280;13450;49.374;8.584;2023-02-14T04:08:15;102507.19;;;-0.96;100.00
25560;BME280;13450;49.374;8.584;2023-02-14T04:10:46;102507.19;;;-0.96;100.00
25560;BME280;13450;49.374;8.584;2023-02-14T04:13:22;102510.72;;;-0.97;100.00
25560;BME280;13450;49.374;8.584;2023-02-14T04:15:51;102504.72;;;-1.01;100.00
25560;BME280;13450;49.374;8.584;2023-02-14T04:18:20;102513.53;;;-1.02;100.00
25560;BME280;13450;49.374;8.584;2023-02-14T04:21:07;102510.09;;;-1.04;100.00
25560;BME280;13450;49.374;8.584;2023-02-14T04:26:11;102527.59;;;-1.03;100.00
25560;BME280;13450;49.374;8.584;2023-02-14T04:28:59;102517.19;;;-1.06;100.00
25560;BME280;13450;49.374;8.584;2023-02-14T04:31:56;102517.19;;;-1.06;100.00
25560;BME280;13450;49.374;8.584;2023-02-14T04:34:42;102511.03;;;-1.05;100.00
25560;BME280;13450;49.374;8.584;2023-02-14T04:37:45;102509.22;;;-1.03;100.00
25560;BME280;13450;49.374;8.584;2023-02-14T04:40:41;102504.91;;;-1.06;100.00
25560;BME280;13450;49.374;8.584;2023-02-14T04:43:24;102510.09;;;-1.04;100.00
25560;BME280;13450;49.374;8.584;2023-02-14T04:46:39;102513.53;;;-1.02;100.00
25560;BME280;13450;49.374;8.584;2023-02-14T04:49:13;102513.53;;;-1.02;100.00
25560;BME280;13450;49.374;8.584;2023-02-14T04:52:10;102513.53;;;-1.02;100.00
25560;BME280;13450;49.374;8.584;2023-02-14T04:54:38;102513.66;;;-1.05;100.00
25560;BME280;13450;49.374;8.584;2023-02-14T04:57:10;102511.94;;;-1.06;100.00
25560;BME280;13450;49.374;8.584;2023-02-14T04:59:38;102510.22;;;-1.07;100.00
25560;BME280;13450;49.374;8.584;2023-02-14T05:02:32;102509.41;;;-1.09;100.00
25560;BME280;13450;49.374;8.584;2023-02-14T05:04:57;102507.75;;;-1.12;100.00
25560;BME280;13450;49.374;8.584;2023-02-14T05:07:34;102498.97;;;-1.11;100.00
25560;BME280;13450;49.374;8.584;2023-02-14T05:10:07;102497.31;;;-1.13;100.00
25560;BME280;13450;49.374;8.584;2023-02-14T05:13:12;102492.13;;;-1.15;100.00
25560;BME280;13450;49.374;8.584;2023-02-14T05:15:39;102493.22;;;-1.21;100.00
25560;BME280;13450;49.374;8.584;2023-02-14T05:18:15;102494.06;;;-1.20;100.00
25560;BME280;13450;49.374;8.584;2023-02-14T05:20:41;102491.31;;;-1.17;100.00
25560;BME280;13450;49.374;8.584;2023-02-14T05:23:22;102487.81;;;-1.17;100.00
25560;BME280;13450;49.374;8.584;2023-02-14T05:25:48;102487.81;;;-1.17;100.00
25560;BME280;13450;49.374;8.584;2023-02-14T05:28:14;102485.13;;;-1.16;100.00
25560;BME280;13450;49.374;8.584;2023-02-14T05:30:40;102487.03;;;-1.20;100.00
25560;BME280;13450;49.374;8.584;2023-02-14T05:33:05;102492.25;;;-1.18;100.00
25560;BME280;13450;49.374;8.584;2023-02-14T05:35:32;102486.13;;;-1.19;100.00
25560;BME280;13450;49.374;8.584;2023-02-14T05:37:58;102487.09;;;-1.21;100.00
25560;BME280;13450;49.374;8.584;2023-02-14T05:42:59;102504.69;;;-1.23;100.00
25560;BME280;13450;49.374;8.584;2023-02-14T05:45:26;102500.41;;;-1.26;100.00
25560;BME280;13450;49.374;8.584;2023-02-14T05:47:55;102503.09;;;-1.27;100.00
25560;BME280;13450;49.374;8.584;2023-02-14T05:50:35;102510.16;;;-1.29;100.00
25560;BME280;13450;49.374;8.584;2023-02-14T05:53:01;102502.22;;;-1.28;100.00
25560;BME280;13450;49.374;8.584;2023-02-14T05:55:27;102510.78;;;-1.23;100.00
25560;BME280;13450;49.374;8.584;2023-02-14T06:00:26;102502.22;;;-1.28;100.00
25560;BME280;13450;49.374;8.584;2023-02-14T06:02:57;102507.47;;;-1.28;100.00
25560;BME280;13450;49.374;8.584;2023-02-14T06:05:22;102502.22;;;-1.28;100.00
25560;BME280;13450;49.374;8.584;2023-02-14T06:07:48;102498.81;;;-1.30;100.00
25560;BME280;13450;49.374;8.584;2023-02-14T06:13:06;102504.22;;;-1.35;100.00
25560;BME280;13450;49.374;8.584;2023-02-14T06:15:39;102505.81;;;-1.30;100.00
25560;BME280;13450;49.374;8.584;2023-02-14T06:18:25;102504.16;;;-1.33;100.00
25560;BME280;13450;49.374;8.584;2023-02-14T06:21:00;102505.03;;;-1.33;100.00
25560;BME280;13450;49.374;8.584;2023-02-14T06:23:27;102506.84;;;-1.35;100.00
25560;BME280;13450;49.374;8.584;2023-02-14T06:25:57;102513.06;;;-1.37;100.00
25560;BME280;13450;49.374;8.584;2023-02-14T06:28:27;102516.63;;;-1.38;100.00
25560;BME280;13450;49.374;8.584;2023-02-14T06:30:54;102522.66;;;-1.36;100.00
25560;BME280;13450;49.374;8.584;2023-02-14T06:33:31;102522.56;;;-1.33;100.00
25560;BME280;13450;49.374;8.584;2023-02-14T06:36:29;102523.47;;;-1.34;100.00
25560;BME280;13450;49.374;8.584;2023-02-14T06:41:54;102528.94;;;-1.40;100.00
25560;BME280;13450;49.374;8.584;2023-02-14T06:44:29;102528.94;;;-1.40;100.00
25560;BME280;13450;49.374;8.584;2023-02-14T06:47:00;102532.50;;;-1.41;100.00
25560;BME280;13450;49.374;8.584;2023-02-14T06:49:29;102537.63;;;-1.38;100.00
25560;BME280;13450;49.374;8.584;2023-02-14T06:51:58;102535.81;;;-1.36;100.00
25560;BME280;13450;49.374;8.584;2023-02-14T06:54:30;102542.66;;;-1.32;100.00
25560;BME280;13450;49.374;8.584;2023-02-14T06:57:09;102541.69;;;-1.29;100.00
25560;BME280;13450;49.374;8.584;2023-02-14T06:59:39;102537.31;;;-1.29;100.00
25560;BME280;13450;49.374;8.584;2023-02-14T07:05:25;102553.25;;;-1.10;100.00
25560;BME280;13450;49.374;8.584;2023-02-14T07:08:00;102540.81;;;-1.04;100.00
25560;BME280;13450;49.374;8.584;2023-02-14T07:10:32;102547.31;;;-0.91;100.00
25560;BME280;13450;49.374;8.584;2023-02-14T07:13:21;102546.09;;;-0.82;100.00
25560;BME280;13450;49.374;8.584;2023-02-14T07:16:09;102546.66;;;-0.74;100.00
25560;BME280;13450;49.374;8.584;2023-02-14T07:18:38;102543.72;;;-0.66;100.00
25560;BME280;13450;49.374;8.584;2023-02-14T07:21:06;102543.44;;;-0.58;100.00
25560;BME280;13450;49.374;8.584;2023-02-14T07:31:41;102529.59;;;-0.19;100.00
25560;BME280;13450;49.374;8.584;2023-02-14T07:34:12;102538.91;;;-0.10;100.00
25560;BME280;13450;49.374;8.584;2023-02-14T07:36:42;102535.06;;;-0.03;100.00
25560;BME280;13450;49.374;8.584;2023-02-14T07:39:25;102529.22;;;0.11;100.00
25560;BME280;13450;49.374;8.584;2023-02-14T07:41:55;102528.78;;;0.22;100.00
25560;BME280;13450;49.374;8.584;2023-02-14T07:44:22;102531.88;;;0.32;100.00
25560;BME280;13450;49.374;8.584;2023-02-14T07:47:15;102532.97;;;0.47;100.00
25560;BME280;13450;49.374;8.584;2023-02-14T07:50:06;102536.88;;;0.59;100.00
25560;BME280;13450;49.374;8.584;2023-02-14T07:52:38;102531.19;;;0.69;100.00
25560;BME280;13450;49.374;8.584;2023-02-14T07:55:14;102531.53;;;0.80;100.00
25560;BME280;13450;49.374;8.584;2023-02-14T07:58:00;102522.38;;;0.89;100.00
25560;BME280;13450;49.374;8.584;2023-02-14T08:00:29;102519.38;;;0.97;100.00
25560;BME280;13450;49.374;8.584;2023-02-14T08:03:03;102525.91;;;1.07;100.00
25560;BME280;13450;49.374;8.584;2023-02-14T08:05:31;102525.56;;;1.15;100.00
25560;BME280;13450;49.374;8.584;2023-02-14T08:08:24;102525.22;;;1.23;100.00
25560;BME280;13450;49.374;8.584;2023-02-14T08:10:52;102521.50;;;1.27;100.00
25560;BME280;13450;49.374;8.584;2023-02-14T08:13:43;102526.34;;;1.36;100.00
25560;BME280;13450;49.374;8.584;2023-02-14T08:16:25;102515.63;;;1.39;100.00
25560;BME280;13450;49.374;8.584;2023-02-14T08:18:55;102526.97;;;1.41;100.00
25560;BME280;13450;49.374;8.584;2023-02-14T08:21:34;102521.63;;;1.43;100.00
25560;BME280;13450;49.374;8.584;2023-02-14T08:24:03;102527.19;;;1.37;100.00
25560;BME280;13450;49.374;8.584;2023-02-14T08:26:31;102522.78;;;1.37;100.00
25560;BME280;13450;49.374;8.584;2023-02-14T08:29:07;102521.75;;;1.40;100.00
25560;BME280;13450;49.374;8.584;2023-02-14T08:31:39;102523.34;;;1.44;100.00
25560;BME280;13450;49.374;8.584;2023-02-14T08:34:06;102509.91;;;1.49;100.00
25560;BME280;13450;49.374;8.584;2023-02-14T08:36:35;102519.16;;;1.58;100.00
25560;BME280;13450;49.374;8.584;2023-02-14T08:39:08;102512.66;;;1.65;100.00
25560;BME280;13450;49.374;8.584;2023-02-14T08:41:36;102520.22;;;1.73;100.00
25560;BME280;13450;49.374;8.584;2023-02-14T08:44:15;102523.47;;;1.78;100.00
25560;BME280;13450;49.374;8.584;2023-02-14T08:46:42;102519.44;;;1.88;100.00
25560;BME280;13450;49.374;8.584;2023-02-14T08:49:15;102526.13;;;1.95;100.00
25560;BME280;13450;49.374;8.584;2023-02-14T08:51:41;102520.97;;;1.92;100.00
25560;BME280;13450;49.374;8.584;2023-02-14T08:54:09;102523.78;;;1.89;100.00
25560;BME280;13450;49.374;8.584;2023-02-14T08:56:35;102522.69;;;1.93;100.00
25560;BME280;13450;49.374;8.584;2023-02-14T08:59:03;102526.88;;;1.98;100.00
25560;BME280;13450;49.374;8.584;2023-02-14T09:01:56;102529.53;;;1.98;100.00
25560;BME280;13450;49.374;8.584;2023-02-14T09:04:21;102521.31;;;2.04;100.00
25560;BME280;13450;49.374;8.584;2023-02-14T09:06:48;102520.22;;;2.08;100.00
25560;BME280;13450;49.374;8.584;2023-02-14T09:09:15;102524.09;;;2.18;100.00
25560;BME280;13450;49.374;8.584;2023-02-14T09:12:04;102526.34;;;2.26;100.00
25560;BME280;13450;49.374;8.584;2023-02-14T09:14:41;102529.59;;;2.31;100.00
25560;BME280;13450;49.374;8.584;2023-02-14T09:17:12;102528.09;;;2.43;100.00
25560;BME280;13450;49.374;8.584;2023-02-14T09:19:44;102527.78;;;2.50;100.00
25560;BME280;13450;49.374;8.584;2023-02-14T09:22:34;102520.81;;;2.48;100.00
25560;BME280;13450;49.374;8.584;2023-02-14T09:25:01;102518.78;;;2.54;100.00
25560;BME280;13450;49.374;8.584;2023-02-14T09:27:34;102517.81;;;2.55;100.00
25560;BME280;13450;49.374;8.584;2023-02-14T09:30:06;102521.69;;;2.65;100.00
25560;BME280;13450;49.374;8.584;2023-02-14T09:32:38;102515.81;;;2.76;100.00
25560;BME280;13450;49.374;8.584;2023-02-14T09:35:06;102513.38;;;2.89;100.00
25560;BME280;13450;49.374;8.584;2023-02-14T09:37:58;102511.34;;;2.94;100.00
25560;BME280;13450;49.374;8.584;2023-02-14T09:40:58;102511.06;;;2.99;100.00
25560;BME280;13450;49.374;8.584;2023-02-14T09:44:11;102513.78;;;2.97;100.00
25560;BME280;13450;49.374;8.584;2023-02-14T09:49:58;102501.78;;;3.08;100.00
25560;BME280;13450;49.374;8.584;2023-02-14T09:59:21;102497.59;;;3.36;100.00
25560;BME280;13450;49.374;8.584;2023-02-14T10:05:12;102492.50;;;3.47;100.00
25560;BME280;13450;49.374;8.584;2023-02-14T10:08:22;102491.59;;;3.48;100.00
25560;BME280;13450;49.374;8.584;2023-02-14T10:11:14;102499.34;;;3.51;100.00
25560;BME280;13450;49.374;8.584;2023-02-14T10:17:27;102489.78;;;3.49;100.00
25560;BME280;13450;49.374;8.584;2023-02-14T10:20:00;102482.53;;;3.52;100.00
25560;BME280;13450;49.374;8.584;2023-02-14T10:22:45;102482.91;;;3.61;100.00
25560;BME280;13450;49.374;8.584;2023-02-14T10:25:41;102482.28;;;3.72;100.00
25560;BME280;13450;49.374;8.584;2023-02-14T10:28:13;102487.16;;;3.79;100.00
25560;BME280;13450;49.374;8.584;2023-02-14T10:34:14;102474.59;;;3.52;100.00
25560;BME280;13450;49.374;8.584;2023-02-14T10:40:46;102474.81;;;3.64;100.00
25560;BME280;13450;49.374;8.584;2023-02-14T10:53:18;102461.09;;;4.02;100.00
25560;BME280;13450;49.374;8.584;2023-02-14T10:55:58;102458.72;;;4.12;100.00
25560;BME280;13450;49.374;8.584;2023-02-14T10:58:52;102457.03;;;4.26;100.00
25560;BME280;13450;49.374;8.584;2023-02-14T11:01:23;102451.06;;;4.37;100.00
25560;BME280;13450;49.374;8.584;2023-02-14T11:04:04;102456.84;;;4.43;100.00
25560;BME280;13450;49.374;8.584;2023-02-14T11:06:58;102454.31;;;4.56;100.00
25560;BME280;13450;49.374;8.584;2023-02-14T11:09:44;102454.31;;;4.56;100.00
25560;BME280;13450;49.374;8.584;2023-02-14T11:12:45;102453.34;;;4.57;100.00
25560;BME280;13450;49.374;8.584;2023-02-14T11:23:52;102434.53;;;4.90;100.00
25560;BME280;13450;49.374;8.584;2023-02-14T11:35:48;102425.09;;;4.71;100.00
25560;BME280;13450;49.374;8.584;2023-02-14T11:43:24;102419.94;;;4.82;100.00
25560;BME280;13450;49.374;8.584;2023-02-14T12:03:44;102394.72;;;5.17;100.00
25560;BME280;13450;49.374;8.584;2023-02-14T12:06:21;102390.94;;;5.21;100.00
25560;BME280;13450;49.374;8.584;2023-02-14T12:08:49;102394.13;;;5.27;100.00
25560;BME280;13450;49.374;8.584;2023-02-14T12:21:56;102368.88;;;5.47;100.00
25560;BME280;13450;49.374;8.584;2023-02-14T12:28:22;102355.59;;;5.47;100.00
25560;BME280;13450;49.374;8.584;2023-02-14T12:31:02;102356.13;;;5.52;100.00
25560;BME280;13450;49.374;8.584;2023-02-14T12:44:59;102343.16;;;5.73;100.00
25560;BME280;13450;49.374;8.584;2023-02-14T12:50:50;102331.81;;;5.84;100.00
25560;BME280;13450;49.374;8.584;2023-02-14T12:58:58;102330.19;;;5.95;100.00
25560;BME280;13450;49.374;8.584;2023-02-14T13:07:07;102329.78;;;5.75;100.00
25560;BME280;13450;49.374;8.584;2023-02-14T13:09:48;102320.44;;;5.82;100.00
25560;BME280;13450;49.374;8.584;2023-02-14T13:23:12;102313.84;;;5.75;100.00
25560;BME280;13450;49.374;8.584;2023-02-14T13:25:42;102306.59;;;5.90;100.00
25560;BME280;13450;49.374;8.584;2023-02-14T13:28:14;102306.78;;;6.00;100.00
25560;BME280;13450;49.374;8.584;2023-02-14T13:30:40;102303.75;;;6.06;100.00
25560;BME280;13450;49.374;8.584;2023-02-14T13:33:29;102290.41;;;6.19;100.00
25560;BME280;13450;49.374;8.584;2023-02-14T13:36:00;102299.06;;;5.97;100.00
25560;BME280;13450;49.374;8.584;2023-02-14T13:38:27;102304.25;;;5.85;100.00
25560;BME280;13450;49.374;8.584;2023-02-14T13:40:56;102288.31;;;5.85;100.00
25560;BME280;13450;49.374;8.584;2023-02-14T13:43:49;102295.31;;;6.12;100.00
25560;BME280;13450;49.374;8.584;2023-02-14T13:46:20;102286.53;;;6.36;100.00
25560;BME280;13450;49.374;8.584;2023-02-14T13:48:55;102282.56;;;6.66;100.00
25560;BME280;13450;49.374;8.584;2023-02-14T13:51:52;102275.34;;;6.69;100.00
25560;BME280;13450;49.374;8.584;2023-02-14T13:56:54;102276.69;;;7.22;100.00
25560;BME280;13450;49.374;8.584;2023-02-14T13:59:31;102283.63;;;7.24;100.00
25560;BME280;13450;49.374;8.584;2023-02-14T14:04:54;102269.66;;;8.12;100.00
25560;BME280;13450;49.374;8.584;2023-02-14T14:07:22;102269.47;;;8.48;100.00
25560;BME280;13450;49.374;8.584;2023-02-14T14:09:52;102269.75;;;9.20;100.00
25560;BME280;13450;49.374;8.584;2023-02-14T14:22:47;102264.59;;;11.01;94.77
25560;BME280;13450;49.374;8.584;2023-02-14T14:33:31;102255.22;;;11.25;89.35
25560;BME280;13450;49.374;8.584;2023-02-14T14:36:06;102259.84;;;12.27;79.78
25560;BME280;13450;49.374;8.584;2023-02-14T14:38:33;102262.59;;;11.89;77.10
25560;BME280;13450;49.374;8.584;2023-02-14T14:41:00;102248.13;;;11.34;80.83
25560;BME280;13450;49.374;8.584;2023-02-14T14:43:37;102244.06;;;11.68;86.58
25560;BME280;13450;49.374;8.584;2023-02-14T14:46:07;102240.22;;;11.42;83.61
25560;BME280;13450;49.374;8.584;2023-02-14T14:51:32;102239.53;;;10.63;92.86
25560;BME280;13450;49.374;8.584;2023-02-14T14:54:30;102230.78;;;10.51;96.44
25560;BME280;13450;49.374;8.584;2023-02-14T14:56:59;102227.56;;;10.47;96.15
25560;BME280;13450;49.374;8.584;2023-02-14T14:59:31;102224.13;;;10.35;95.57
25560;BME280;13450;49.374;8.584;2023-02-14T15:02:01;102222.56;;;10.13;99.90
25560;BME280;13450;49.374;8.584;2023-02-14T15:04:34;102224.09;;;10.05;100.00
25560;BME280;13450;49.374;8.584;2023-02-14T15:07:36;102212.72;;;10.23;100.00
25560;BME280;13450;49.374;8.584;2023-02-14T15:10:02;102218.81;;;9.74;100.00
25560;BME280;13450;49.374;8.584;2023-02-14T15:12:29;102210.66;;;9.76;100.00
25560;BME280;13450;49.374;8.584;2023-02-14T15:15:15;102212.59;;;9.64;100.00
25560;BME280;13450;49.374;8.584;2023-02-14T15:17:44;102214.75;;;9.39;100.00
25560;BME280;13450;49.374;8.584;2023-02-14T15:20:27;102216.94;;;9.24;100.00
25560;BME280;13450;49.374;8.584;2023-02-14T15:22:53;102221.66;;;9.20;100.00
25560;BME280;13450;49.374;8.584;2023-02-14T15:25:25;102221.56;;;9.00;100.00
25560;BME280;13450;49.374;8.584;2023-02-14T15:27:52;102215.72;;;8.85;100.00
25560;BME280;13450;49.374;8.584;2023-02-14T15:32:47;102215.38;;;9.00;100.00
25560;BME280;13450;49.374;8.584;2023-02-14T15:35:16;102215.03;;;8.93;100.00
25560;BME280;13450;49.374;8.584;2023-02-14T15:37:47;102211.81;;;8.89;100.00
25560;BME280;13450;49.374;8.584;2023-02-14T15:40:17;102213.00;;;8.75;100.00
25560;BME280;13450;49.374;8.584;2023-02-14T15:42:44;102223.66;;;8.43;100.00
25560;BME280;13450;49.374;8.584;2023-02-14T15:45:20;102213.13;;;8.30;100.00
25560;BME280;13450;49.374;8.584;2023-02-14T15:48:02;102214.13;;;7.62;100.00
25560;BME280;13450;49.374;8.584;2023-02-14T15:50:43;102217.63;;;7.16;100.00
25560;BME280;13450;49.374;8.584;2023-02-14T15:56:10;102217.50;;;6.35;100.00
25560;BME280;13450;49.374;8.584;2023-02-14T15:58:37;102216.03;;;6.06;100.00
25560;BME280;13450;49.374;8.584;2023-02-14T16:01:06;102211.75;;;5.91;100.00
25560;BME280;13450;49.374;8.584;2023-02-14T16:03:34;102215.03;;;5.70;100.00
25560;BME280;13450;49.374;8.584;2023-02-14T16:06:03;102215.78;;;5.46;100.00
25560;BME280;13450;49.374;8.584;2023-02-14T16:08:33;102225.03;;;5.27;100.00
25560;BME280;13450;49.374;8.584;2023-02-14T16:11:00;102223.31;;;5.00;100.00
25560;BME280;13450;49.374;8.584;2023-02-14T16:13:30;102223.06;;;4.77;100.00
25560;BME280;13450;49.374;8.584;2023-02-14T16:16:01;102221.13;;;4.53;100.00
25560;BME280;13450;49.374;8.584;2023-02-14T16:18:47;102216.88;;;4.23;100.00
25560;BME280;13450;49.374;8.584;2023-02-14T16:21:19;102223.25;;;4.06;100.00
25560;BME280;13450;49.374;8.584;2023-02-14T16:26:35;102222.28;;;3.65;100.00
25560;BME280;13450;49.374;8.584;2023-02-14T16:29:10;102211.59;;;3.52;100.00
25560;BME280;13450;49.374;8.584;2023-02-14T16:31:42;102202.06;;;3.35;100.00
25560;BME280;13450;49.374;8.584;2023-02-14T16:34:11;102216.31;;;3.18;100.00
25560;BME280;13450;49.374;8.584;2023-02-14T16:36:37;102219.22;;;2.98;100.00
25560;BME280;13450;49.374;8.584;2023-02-14T16:39:04;102216.09;;;2.92;100.00
25560;BME280;13450;49.374;8.584;2023-02-14T16:41:30;102214.25;;;2.78;100.00
25560;BME280;13450;49.374;8.584;2023-02-14T16:43:57;102213.09;;;2.67;100.00
25560;BME280;13450;49.374;8.584;2023-02-14T16:46:34;102219.25;;;2.52;100.00
25560;BME280;13450;49.374;8.584;2023-02-14T16:49:00;102218.97;;;2.42;100.00
25560;BME280;13450;49.374;8.584;2023-02-14T16:51:30;102211.66;;;2.31;100.00
25560;BME280;13450;49.374;8.584;2023-02-14T16:54:06;102219.00;;;2.26;100.00
25560;BME280;13450;49.374;8.584;2023-02-14T16:56:52;102217.28;;;2.08;100.00
25560;BME280;13450;49.374;8.584;2023-02-14T16:59:20;102214.72;;;2.07;100.00
25560;BME280;13450;49.374;8.584;2023-02-14T17:01:45;102227.50;;;1.99;100.00
25560;BME280;13450;49.374;8.584;2023-02-14T17:04:11;102228.69;;;1.93;100.00
25560;BME280;13450;49.374;8.584;2023-02-14T17:06:38;102214.97;;;1.86;100.00
25560;BME280;13450;49.374;8.584;2023-02-14T17:09:08;102215.41;;;1.78;100.00
25560;BME280;13450;49.374;8.584;2023-02-14T17:11:43;102225.44;;;1.72;100.00
25560;BME280;13450;49.374;8.584;2023-02-14T17:14:11;102223.91;;;1.67;100.00
25560;BME280;13450;49.374;8.584;2023-02-14T17:16:38;102231.03;;;1.65;100.00
25560;BME280;13450;49.374;8.584;2023-02-14T17:19:04;102229.84;;;1.55;100.00
25560;BME280;13450;49.374;8.584;2023-02-14T17:21:29;102230.84;;;1.52;100.00
25560;BME280;13450;49.374;8.584;2023-02-14T17:23:55;102238.84;;;1.51;100.00
25560;BME280;13450;49.374;8.584;2023-02-14T17:26:21;102242.59;;;1.47;100.00
25560;BME280;13450;49.374;8.584;2023-02-14T17:28:47;102240.88;;;1.46;100.00
25560;BME280;13450;49.374;8.584;2023-02-14T17:31:13;102236.78;;;1.40;100.00
25560;BME280;13450;49.374;8.584;2023-02-14T17:33:40;102232.66;;;1.34;100.00
25560;BME280;13450;49.374;8.584;2023-02-14T17:36:08;102239.97;;;1.29;100.00
25560;BME280;13450;49.374;8.584;2023-02-14T17:38:34;102245.41;;;1.26;100.00
25560;BME280;13450;49.374;8.584;2023-02-14T17:41:42;102237.59;;;1.24;100.00
25560;BME280;13450;49.374;8.584;2023-02-14T17:44:00;102245.56;;;1.23;100.00
25560;BME280;13450;49.374;8.584;2023-02-14T17:46:33;102247.75;;;1.14;100.00
25560;BME280;13450;49.374;8.584;2023-02-14T17:48:59;102260.00;;;1.15;100.00
25560;BME280;13450;49.374;8.584;2023-02-14T17:51:27;102247.91;;;1.11;100.00